Time;durP1;ratioP1;P1;durP2;ratioP2;P2;SDS_P1;SDS_P2;PMS_P1;PMS_P2;Temp;Humidity;BMP_temperature;BMP_pressure;BME280_temperature;BME280_humidity;BME280_pressure;Samples;Min_cycle;Max_cycle;Signal;HPM_P1;HPM_P2
2020/12/27 00:01:05;;;;;;;14.77;8.73;;;;;;;7.55;84.25;94930.31;5018714;28;20495;-82
2020/12/27 00:03:33;;;;;;;11.97;8.00;;;;;;;7.57;84.58;94933.66;5018825;28;20534;-82
2020/12/27 00:05:59;;;;;;;13.23;7.90;;;;;;;7.59;84.76;94944.81;5019360;28;20923;-82
2020/12/27 00:08:25;;;;;;;12.47;8.50;;;;;;;7.60;85.54;94944.72;5018784;28;20435;-83
2020/12/27 00:10:52;;;;;;;11.93;8.20;;;;;;;7.64;85.57;94929.66;5019060;28;20451;-82
2020/12/27 00:13:19;;;;;;;13.47;7.90;;;;;;;7.67;85.51;94934.66;5018926;28;20483;-82
2020/12/27 00:15:45;;;;;;;9.90;6.57;;;;;;;7.72;85.30;94940.34;5018759;28;20444;-82
2020/12/27 00:18:11;;;;;;;11.80;6.90;;;;;;;7.69;84.85;94946.66;5018923;28;20466;-82
2020/12/27 00:20:39;;;;;;;11.37;6.70;;;;;;;7.65;84.39;94945.19;5018870;28;20454;-82
2020/12/27 00:23:05;;;;;;;9.87;6.83;;;;;;;7.60;84.31;94946.50;5018957;28;20479;-82
2020/12/27 00:25:32;;;;;;;9.37;7.40;;;;;;;7.56;85.15;94950.25;5018775;28;20460;-82
2020/12/27 00:27:58;;;;;;;13.40;7.60;;;;;;;7.58;85.02;94948.38;5018748;28;20486;-82
2020/12/27 00:30:25;;;;;;;10.20;7.00;;;;;;;7.57;85.41;94949.31;5018718;28;20844;-83
2020/12/27 00:32:51;;;;;;;17.03;7.50;;;;;;;7.53;85.16;94942.66;5018646;28;21129;-82
2020/12/27 00:35:18;;;;;;;16.37;6.77;;;;;;;7.51;84.95;94944.50;5019025;28;20529;-83
2020/12/27 00:37:45;;;;;;;8.83;7.07;;;;;;;7.50;85.52;94940.25;5018597;28;20447;-83
2020/12/27 00:40:11;;;;;;;10.20;6.10;;;;;;;7.43;85.01;94943.28;5016252;28;20947;-83
2020/12/27 00:42:38;;;;;;;9.03;6.63;;;;;;;7.41;85.18;94939.13;5015564;28;20437;-82
2020/12/27 00:45:05;;;;;;;9.10;6.37;;;;;;;7.45;86.02;94936.19;5015578;28;20522;-80
2020/12/27 00:47:31;;;;;;;10.10;6.87;;;;;;;7.49;86.46;94943.78;4980868;28;20570;-82
2020/12/27 00:49:57;;;;;;;7.40;6.23;;;;;;;7.52;86.92;94935.75;4980915;28;20446;-82
2020/12/27 00:52:24;;;;;;;7.10;6.00;;;;;;;7.55;86.86;94941.59;5015571;28;20506;-81
2020/12/27 00:54:51;;;;;;;12.80;6.40;;;;;;;7.57;86.65;94939.72;5015589;28;20466;-80
2020/12/27 00:57:17;;;;;;;8.27;5.90;;;;;;;7.58;86.18;94937.94;5015618;28;20451;-80
2020/12/27 00:59:44;;;;;;;9.23;6.63;;;;;;;7.63;86.05;94948.88;5015469;28;20449;-80
2020/12/27 01:02:10;;;;;;;13.00;7.40;;;;;;;7.67;86.27;94937.25;5015340;28;20447;-80
2020/12/27 01:04:36;;;;;;;13.87;8.67;;;;;;;7.74;86.04;94941.09;5015394;28;20454;-81
2020/12/27 01:07:03;;;;;;;12.53;8.10;;;;;;;7.74;85.81;94941.09;5015432;28;20455;-81
2020/12/27 01:09:29;;;;;;;11.83;6.60;;;;;;;7.75;86.03;94930.53;5016337;28;20444;-81
2020/12/27 01:11:56;;;;;;;10.10;6.33;;;;;;;7.78;86.16;94935.50;5015527;28;20444;-81
2020/12/27 01:14:23;;;;;;;11.63;6.70;;;;;;;7.81;86.29;94937.09;5015423;28;20456;-81
2020/12/27 01:16:50;;;;;;;11.97;7.53;;;;;;;7.82;85.98;94936.16;5015163;28;21010;-81
2020/12/27 01:19:17;;;;;;;8.83;7.27;;;;;;;7.83;85.90;94929.97;5015034;28;20928;-81
2020/12/27 01:21:43;;;;;;;8.20;7.30;;;;;;;7.88;86.82;94932.25;5015165;28;20452;-81
2020/12/27 01:24:10;;;;;;;11.83;8.57;;;;;;;7.89;86.39;94937.38;4996748;28;20516;-81
2020/12/27 01:26:37;;;;;;;10.23;6.93;;;;;;;7.87;86.11;94930.59;5015006;28;20455;-81
2020/12/27 01:29:05;;;;;;;8.60;7.23;;;;;;;7.80;85.88;94934.56;5014501;28;20443;-81
2020/12/27 01:31:32;;;;;;;16.10;9.20;;;;;;;7.64;86.01;94932.25;5014406;28;20447;-81
2020/12/27 01:33:58;;;;;;;10.93;8.57;;;;;;;7.54;86.68;94920.81;5014497;28;20471;-81
2020/12/27 01:36:26;;;;;;;15.07;12.07;;;;;;;7.52;87.91;94920.06;4979857;28;20444;-81
2020/12/27 01:38:53;;;;;;;10.57;9.47;;;;;;;7.53;87.88;94914.78;5014360;28;20940;-81
2020/12/27 01:41:21;;;;;;;7.53;6.90;;;;;;;7.54;87.99;94908.59;5014474;28;20452;-81
2020/12/27 01:44:06;;;;;;;8.60;7.20;;;;;;;7.55;88.00;94906.81;5014290;28;20492;-81
2020/12/27 01:46:33;;;;;;;9.43;7.10;;;;;;;7.50;88.02;94898.47;5014356;28;20455;-80
2020/12/27 01:49:00;;;;;;;13.30;7.43;;;;;;;7.39;87.69;94900.09;4995944;28;20436;-81
2020/12/27 01:51:27;;;;;;;9.80;7.50;;;;;;;7.35;88.83;94901.25;5014183;28;20463;-81
2020/12/27 01:53:53;;;;;;;7.67;6.87;;;;;;;7.34;88.32;94909.19;5014032;28;20484;-81
2020/12/27 01:56:27;;;;;;;13.07;7.17;;;;;;;7.34;87.84;94910.03;5014109;28;20955;-81
2020/12/27 01:58:58;;;;;;;9.50;6.93;;;;;;;7.37;88.63;94906.38;5014363;28;21014;-81
2020/12/27 02:01:26;;;;;;;9.90;7.20;;;;;;;7.37;88.63;94906.38;5014241;28;20451;-80
2020/12/27 02:03:52;;;;;;;11.77;8.50;;;;;;;7.28;89.26;94889.59;5014346;28;20443;-81
2020/12/27 02:06:19;;;;;;;8.77;6.93;;;;;;;7.26;89.70;94880.22;5014866;28;20440;-80
2020/12/27 02:08:46;;;;;;;10.50;7.93;;;;;;;7.23;90.85;94872.56;5014310;28;20462;-80
2020/12/27 02:11:12;;;;;;;12.47;8.63;;;;;;;7.20;90.50;94878.03;5014528;28;20458;-80
2020/12/27 02:13:49;;;;;;;9.67;7.47;;;;;;;6.97;91.89;94884.91;5014468;28;20493;-80
2020/12/27 02:16:18;;;;;;;13.00;8.47;;;;;;;6.54;93.60;94880.06;5014619;28;20873;-81
2020/12/27 02:18:45;;;;;;;10.20;7.40;;;;;;;6.49;93.74;94876.94;5014634;28;20462;-81
2020/12/27 02:21:11;;;;;;;9.87;7.53;;;;;;;6.20;95.55;94874.56;5017850;28;20527;-81
2020/12/27 02:23:38;;;;;;;12.03;7.90;;;;;;;6.13;96.82;94875.91;5014720;28;20447;-81
2020/12/27 02:26:06;;;;;;;8.93;6.93;;;;;;;6.03;98.68;94879.22;5014560;28;20455;-81
2020/12/27 02:28:33;;;;;;;11.27;7.50;;;;;;;6.07;99.01;94878.09;5014435;28;21009;-81
2020/12/27 02:30:59;;;;;;;10.03;8.30;;;;;;;6.12;99.46;94871.66;4980104;28;20512;-81
2020/12/27 02:33:25;;;;;;;11.33;8.20;;;;;;;6.03;99.47;94864.44;5014236;28;20494;-81
2020/12/27 02:35:52;;;;;;;11.43;8.37;;;;;;;6.11;99.34;94861.34;4979667;28;20439;-81
2020/12/27 02:38:18;;;;;;;10.97;7.47;;;;;;;6.14;99.38;94861.97;5014252;28;20442;-81
2020/12/27 02:40:45;;;;;;;12.97;8.33;;;;;;;6.00;100.00;94850.78;5013991;28;20796;-81
2020/12/27 02:43:14;;;;;;;11.63;8.80;;;;;;;5.83;100.00;94854.50;5013706;28;20450;-81
2020/12/27 02:45:41;;;;;;;15.63;8.90;;;;;;;5.80;100.00;94847.75;4995538;28;20443;-81
2020/12/27 02:48:08;;;;;;;15.83;9.60;;;;;;;5.77;100.00;94852.28;5013516;28;20447;-80
2020/12/27 02:50:34;;;;;;;18.50;9.83;;;;;;;5.78;100.00;94848.75;5013505;28;20440;-80
2020/12/27 02:53:01;;;;;;;13.77;9.80;;;;;;;5.74;100.00;94849.91;5013552;28;20487;-81
2020/12/27 02:55:27;;;;;;;22.60;8.80;;;;;;;5.79;100.00;94851.28;5013660;28;20812;-80
2020/12/27 02:57:54;;;;;;;16.20;10.50;;;;;;;5.89;100.00;94846.28;5013079;28;20482;-80
2020/12/27 03:00:21;;;;;;;19.30;11.53;;;;;;;5.98;100.00;94839.66;5013444;28;20439;-80
2020/12/27 03:02:48;;;;;;;16.67;10.60;;;;;;;6.01;100.00;94844.63;5012389;28;20427;-80
2020/12/27 03:05:15;;;;;;;10.03;7.73;;;;;;;5.96;100.00;94851.94;5012724;28;20790;-80
2020/12/27 03:07:41;;;;;;;16.30;10.53;;;;;;;5.93;100.00;94854.75;5013744;28;21010;-80
2020/12/27 03:10:08;;;;;;;14.20;9.97;;;;;;;5.92;100.00;94851.31;5012977;28;20452;-80
2020/12/27 03:12:34;;;;;;;17.07;9.00;;;;;;;5.81;100.00;94848.56;5012985;28;20479;-80
2020/12/27 03:15:00;;;;;;;11.17;7.60;;;;;;;5.56;100.00;94845.00;5013032;28;20458;-81
2020/12/27 03:17:27;;;;;;;15.27;9.73;;;;;;;5.62;100.00;94841.16;5012936;28;20521;-81
2020/12/27 03:19:54;;;;;;;18.47;11.77;;;;;;;5.51;100.00;94852.28;5012711;28;20955;-80
2020/12/27 03:22:20;;;;;;;19.00;12.00;;;;;;;5.60;100.00;94845.63;5012568;28;20534;-81
2020/12/27 03:24:47;;;;;;;24.00;12.27;;;;;;;5.55;100.00;94851.13;5012555;28;20943;-81
2020/12/27 03:27:13;;;;;;;25.20;13.00;;;;;;;5.72;100.00;94849.16;5013014;28;20439;-81
2020/12/27 03:29:39;;;;;;;19.20;12.50;;;;;;;5.78;100.00;94853.97;5013154;28;20458;-81
2020/12/27 03:32:06;;;;;;;16.90;11.53;;;;;;;5.70;100.00;94853.63;5012640;28;21001;-81
2020/12/27 03:34:33;;;;;;;17.17;10.20;;;;;;;5.60;100.00;94836.03;5012698;28;20453;-81
2020/12/27 03:36:59;;;;;;;16.00;11.27;;;;;;;5.68;100.00;94834.69;5012509;28;20825;-80
2020/12/27 03:39:25;;;;;;;20.17;12.03;;;;;;;5.57;100.00;94836.25;5012526;28;20458;-81
2020/12/27 03:41:52;;;;;;;20.83;9.50;;;;;;;5.72;100.00;94839.59;4945628;28;20435;-81
2020/12/27 03:44:18;;;;;;;15.40;11.00;;;;;;;5.66;100.00;94841.78;5012317;28;20939;-80
2020/12/27 03:46:44;;;;;;;18.53;12.63;;;;;;;5.48;100.00;94836.00;5012382;28;20450;-81
2020/12/27 03:49:11;;;;;;;17.50;11.13;;;;;;;5.59;100.00;94823.97;4977976;28;20443;-81
2020/12/27 03:51:38;;;;;;;20.47;12.30;;;;;;;5.60;100.00;94832.59;5012659;28;20465;-81
2020/12/27 03:54:04;;;;;;;21.47;13.20;;;;;;;5.41;100.00;94834.75;5012219;28;20727;-80
2020/12/27 03:56:31;;;;;;;22.43;13.50;;;;;;;5.68;100.00;94830.31;5012250;28;20642;-80
2020/12/27 03:58:58;;;;;;;20.13;12.73;;;;;;;5.69;100.00;94834.59;5012533;28;20467;-81
2020/12/27 04:01:24;;;;;;;23.40;14.60;;;;;;;5.68;100.00;94824.28;5012258;28;20486;-80
2020/12/27 04:03:51;;;;;;;24.90;13.70;;;;;;;5.52;100.00;94827.91;5012437;28;20935;-81
2020/12/27 04:06:17;;;;;;;22.27;14.20;;;;;;;5.54;100.00;94830.41;5012286;28;20439;-80
2020/12/27 04:08:44;;;;;;;28.13;15.40;;;;;;;5.58;100.00;94831.88;5012208;28;20447;-80
2020/12/27 04:11:11;;;;;;;20.20;12.57;;;;;;;5.59;100.00;94823.97;5012250;28;20471;-80
2020/12/27 04:13:37;;;;;;;23.20;12.77;;;;;;;5.60;100.00;94823.03;5012155;28;20494;-80
2020/12/27 04:16:04;;;;;;;20.57;13.13;;;;;;;5.59;100.00;94825.72;5014470;28;20455;-80
2020/12/27 04:18:30;;;;;;;21.63;12.23;;;;;;;5.57;100.00;94825.00;5015805;28;20476;-81
2020/12/27 04:20:56;;;;;;;19.10;12.33;;;;;;;5.61;100.00;94826.47;5016008;28;20451;-81
2020/12/27 04:23:23;;;;;;;25.13;13.70;;;;;;;5.54;100.00;94826.03;5015770;28;20446;-81
2020/12/27 04:25:50;;;;;;;19.33;13.33;;;;;;;5.51;100.00;94821.03;5015766;28;20840;-81
2020/12/27 04:28:17;;;;;;;20.07;11.90;;;;;;;5.47;100.00;94813.50;4980668;28;20594;-81
2020/12/27 04:30:44;;;;;;;13.50;10.70;;;;;;;5.49;100.00;94816.84;5015892;28;20446;-80
2020/12/27 04:33:11;;;;;;;12.43;9.63;;;;;;;5.57;100.00;94825.84;5015632;28;20556;-81
2020/12/27 04:35:37;;;;;;;13.67;9.57;;;;;;;5.63;100.00;94824.59;4981085;28;20447;-80
2020/12/27 04:38:04;;;;;;;14.20;8.20;;;;;;;5.41;100.00;94830.38;5015376;28;20451;-81
2020/12/27 04:40:30;;;;;;;11.33;8.50;;;;;;;5.44;100.00;94824.97;5015418;28;20455;-81
2020/12/27 04:42:57;;;;;;;12.60;7.87;;;;;;;5.44;100.00;94830.16;5015285;28;21005;-81
2020/12/27 04:45:24;;;;;;;14.27;7.53;;;;;;;5.50;100.00;94826.34;5015364;28;20793;-80
2020/12/27 04:47:50;;;;;;;10.70;7.67;;;;;;;5.52;100.00;94821.88;5015342;28;20443;-81
2020/12/27 04:50:18;;;;;;;11.27;6.43;;;;;;;5.41;100.00;94825.16;4980833;28;20451;-80
2020/12/27 04:52:44;;;;;;;11.87;6.67;;;;;;;5.65;100.00;94827.09;5015070;28;20487;-80
2020/12/27 04:55:11;;;;;;;8.80;7.33;;;;;;;5.56;100.00;94820.72;5015044;28;20646;-80
2020/12/27 04:57:40;;;;;;;13.60;6.80;;;;;;;5.55;100.00;94827.72;5015197;28;20995;-81
2020/12/27 05:00:08;;;;;;;7.50;4.83;;;;;;;5.37;100.00;94828.06;4980375;28;20444;-81
2020/12/27 05:02:34;;;;;;;7.20;5.37;;;;;;;5.53;100.00;94831.34;5015114;28;20466;-80
2020/12/27 05:05:02;;;;;;;7.50;5.73;;;;;;;5.54;100.00;94823.44;5015285;28;20456;-80
2020/12/27 05:07:28;;;;;;;8.33;5.27;;;;;;;5.61;100.00;94826.47;5014958;28;20447;-80
2020/12/27 05:09:55;;;;;;;7.67;4.70;;;;;;;5.61;100.00;94831.66;5015586;28;20832;-80
2020/12/27 05:12:21;;;;;;;5.10;4.50;;;;;;;5.76;100.00;94840.22;5014647;28;20447;-80
2020/12/27 05:14:47;;;;;;;6.07;4.40;;;;;;;5.72;100.00;94836.16;5015188;28;20447;-81
2020/12/27 05:17:15;;;;;;;10.03;6.60;;;;;;;5.83;100.00;94831.91;4996400;28;20471;-80
2020/12/27 05:19:42;;;;;;;10.10;6.63;;;;;;;5.89;100.00;94834.13;5015080;28;20447;-80
2020/12/27 05:22:09;;;;;;;6.60;5.33;;;;;;;5.96;100.00;94836.31;4980473;28;20451;-80
2020/12/27 05:24:37;;;;;;;6.60;4.93;;;;;;;6.05;100.00;94827.88;5014827;28;20451;-81
2020/12/27 05:27:06;;;;;;;10.50;6.80;;;;;;;6.08;100.00;94825.91;5014435;28;20466;-81
2020/12/27 05:29:33;;;;;;;7.80;5.23;;;;;;;6.01;100.00;94842.03;5014553;28;20444;-81
2020/12/27 05:32:00;;;;;;;11.07;5.87;;;;;;;5.85;100.00;94835.25;5014540;28;20518;-81
2020/12/27 05:34:29;;;;;;;7.33;5.30;;;;;;;5.94;100.00;94830.38;4996016;28;20581;-81
2020/12/27 05:37:01;;;;;;;9.47;6.00;;;;;;;5.86;100.00;94829.09;5014350;28;20440;-81
2020/12/27 05:39:29;;;;;;;18.60;8.17;;;;;;;5.84;100.00;94827.53;5014760;28;20509;-80
2020/12/27 05:42:04;;;;;;;19.80;8.87;;;;;;;5.88;100.00;94834.19;5014428;28;20454;-80
2020/12/27 05:44:30;;;;;;;8.70;5.73;;;;;;;5.78;100.00;94827.91;5014201;28;20458;-80
2020/12/27 05:46:57;;;;;;;8.87;6.13;;;;;;;5.86;100.00;94831.69;5014854;28;20872;-80
2020/12/27 05:49:24;;;;;;;6.93;5.10;;;;;;;5.85;100.00;94824.00;4979511;28;20439;-81
2020/12/27 05:51:53;;;;;;;11.47;8.80;;;;;;;5.80;100.00;94831.28;5014091;28;20447;-81
2020/12/27 05:54:33;;;;;;;13.10;9.80;;;;;;;5.93;100.00;94832.16;5014316;28;20577;-81
2020/12/27 05:57:01;;;;;;;16.80;11.60;;;;;;;5.85;100.00;94826.59;4995423;28;20454;-80
2020/12/27 05:59:30;;;;;;;9.37;7.30;;;;;;;5.95;100.00;94827.66;5014297;28;20832;-80
2020/12/27 06:01:58;;;;;;;7.97;5.60;;;;;;;6.04;100.00;94834.00;5014112;28;20451;-87
2020/12/27 06:05:08;;;;;;;8.83;5.10;;;;;;;5.98;100.00;94821.41;5016153;28;20456;-89
2020/12/27 06:07:38;;;;;;;8.90;6.40;;;;;;;5.96;100.00;94826.72;4976164;28;20937;-89
2020/12/27 06:10:11;;;;;;;10.70;7.30;;;;;;;5.94;100.00;94823.41;4964315;28;20450;-89
2020/12/27 06:13:07;;;;;;;10.10;7.63;;;;;;;5.98;100.00;94821.41;4968049;28;20441;-90
2020/12/27 06:15:36;;;;;;;15.40;6.60;;;;;;;6.03;100.00;94817.56;4972783;28;20980;-82
2020/12/27 06:18:11;;;;;;;9.13;6.53;;;;;;;6.13;100.00;94826.44;4972063;28;20449;-82
2020/12/27 06:20:39;;;;;;;11.53;9.70;;;;;;;6.04;100.00;94839.22;4940511;28;20519;-81
2020/12/27 06:23:07;;;;;;;10.80;9.50;;;;;;;6.06;100.00;94838.19;4971994;28;20445;-82
2020/12/27 06:25:34;;;;;;;11.13;7.60;;;;;;;6.14;100.00;94828.09;4908468;28;20448;-82
2020/12/27 06:28:01;;;;;;;8.13;6.10;;;;;;;6.24;100.00;94837.88;4939770;28;20556;-82
2020/12/27 06:30:32;;;;;;;8.13;6.87;;;;;;;6.19;100.00;94832.97;4971820;28;20455;-82
2020/12/27 06:33:05;;;;;;;13.40;6.40;;;;;;;5.94;100.00;94833.81;4971936;28;20488;-82
2020/12/27 06:35:33;;;;;;;8.80;7.20;;;;;;;5.97;100.00;94837.97;4971705;28;21031;-82
2020/12/27 06:38:00;;;;;;;8.00;5.90;;;;;;;5.88;100.00;94839.41;4969097;28;20452;-81
2020/12/27 06:40:27;;;;;;;10.37;6.47;;;;;;;5.92;100.00;94827.88;4952271;28;20454;-82
2020/12/27 06:43:17;;;;;;;7.77;5.80;;;;;;;5.95;100.00;94825.06;4971562;28;20454;-81
2020/12/27 06:45:43;;;;;;;7.60;5.87;;;;;;;5.96;100.00;94824.13;5009514;28;20451;-82
2020/12/27 06:48:10;;;;;;;6.50;5.83;;;;;;;5.98;100.00;94819.63;4978530;28;20998;-83
2020/12/27 06:50:45;;;;;;;6.47;5.87;;;;;;;5.94;100.00;94810.38;5012768;28;20504;-82
2020/12/27 06:53:32;;;;;;;7.60;6.57;;;;;;;5.80;100.00;94818.28;5013149;28;20482;-83
2020/12/27 06:56:04;;;;;;;13.03;5.30;;;;;;;5.61;100.00;94810.84;5013752;28;20881;-80
2020/12/27 06:58:30;;;;;;;10.10;7.00;;;;;;;5.80;100.00;94831.28;5013085;28;20497;-79
2020/12/27 07:01:13;;;;;;;6.47;5.73;;;;;;;5.83;100.00;94825.88;5013377;28;20467;-82
2020/12/27 07:03:40;;;;;;;9.60;7.63;;;;;;;5.83;100.00;94820.66;5012912;28;20438;-82
2020/12/27 07:06:22;;;;;;;8.90;7.80;;;;;;;5.83;100.00;94829.31;5013303;28;20683;-81
2020/12/27 07:08:49;;;;;;;11.53;7.63;;;;;;;5.82;100.00;94835.44;5012618;28;20493;-82
2020/12/27 07:11:19;;;;;;;17.00;9.47;;;;;;;5.81;100.00;94827.75;5012897;28;20470;-84
2020/12/27 07:13:47;;;;;;;12.47;8.07;;;;;;;5.94;100.00;94826.00;4994948;28;20577;-84
2020/12/27 07:16:16;;;;;;;19.80;10.27;;;;;;;5.88;100.00;94834.19;5013165;28;20521;-82
2020/12/27 07:18:45;;;;;;;8.80;7.37;;;;;;;6.02;100.00;94830.69;5012619;28;20907;-82
2020/12/27 07:21:15;;;;;;;9.80;7.60;;;;;;;6.08;100.00;94838.94;5012709;28;20447;-80
2020/12/27 07:23:48;;;;;;;14.63;9.80;;;;;;;6.24;100.00;94835.25;5012944;28;20451;-82
2020/12/27 07:26:15;;;;;;;15.33;9.67;;;;;;;6.16;100.00;94815.78;5013458;28;20813;-82
2020/12/27 07:28:44;;;;;;;13.40;7.70;;;;;;;6.28;100.00;94832.34;5013387;28;20447;-82
2020/12/27 07:31:17;;;;;;;14.23;7.73;;;;;;;6.05;100.00;94835.69;5012864;28;20443;-82
2020/12/27 07:33:46;;;;;;;14.20;8.10;;;;;;;6.04;100.00;94832.25;5012531;28;20486;-81
2020/12/27 07:36:14;;;;;;;12.00;7.97;;;;;;;6.04;100.00;94819.22;5013255;28;20482;-82
2020/12/27 07:39:05;;;;;;;10.63;6.10;;;;;;;6.06;100.00;94817.34;5013063;28;20954;-82
2020/12/27 07:41:34;;;;;;;10.83;7.33;;;;;;;6.24;100.00;94824.84;4951797;29;20554;-81
2020/12/27 07:44:02;;;;;;;13.97;8.97;;;;;;;6.14;100.00;94809.84;4952451;29;20465;-82
2020/12/27 07:46:28;;;;;;;9.93;8.30;;;;;;;6.32;100.00;94801.69;4952969;29;20946;-86
2020/12/27 07:48:55;;;;;;;10.67;8.20;;;;;;;6.24;100.00;94804.00;4954257;28;20465;-82
2020/12/27 07:51:24;;;;;;;10.57;8.13;;;;;;;6.26;100.00;94812.53;4956171;29;20810;-81
2020/12/27 07:53:52;;;;;;;15.83;11.70;;;;;;;6.03;100.00;94804.53;4956258;29;20882;-81
2020/12/27 07:56:20;;;;;;;18.60;13.20;;;;;;;6.09;100.00;94803.31;4924020;29;20449;-81
2020/12/27 07:58:49;;;;;;;16.37;11.77;;;;;;;6.37;100.00;94815.25;4955658;29;20481;-81
2020/12/27 08:01:18;;;;;;;15.97;11.73;;;;;;;6.28;100.00;94826.28;4955840;29;20453;-80
2020/12/27 08:03:49;;;;;;;15.17;10.40;;;;;;;6.94;100.00;94822.50;4956628;29;20548;-82
2020/12/27 08:06:17;;;;;;;13.80;11.20;;;;;;;6.81;100.00;94819.94;4956459;29;20557;-82
2020/12/27 08:08:43;;;;;;;11.80;10.60;;;;;;;6.91;100.00;94810.50;4955980;29;20512;-81
2020/12/27 08:11:19;;;;;;;19.13;14.63;;;;;;;6.79;100.00;94814.81;4955658;29;20449;-82
2020/12/27 08:13:53;;;;;;;17.53;12.80;;;;;;;6.91;100.00;94807.88;4956102;29;20623;-82
2020/12/27 08:16:21;;;;;;;20.50;14.03;;;;;;;6.67;100.00;94799.25;4924091;29;20454;-82
2020/12/27 08:18:47;;;;;;;13.40;11.00;;;;;;;6.51;100.00;94792.47;5005706;28;20435;-83
2020/12/27 08:21:23;;;;;;;12.63;10.03;;;;;;;6.58;100.00;94787.66;5016050;28;20439;-82
2020/12/27 08:23:58;;;;;;;16.70;9.37;;;;;;;6.47;100.00;94780.63;5016110;28;20478;-82
2020/12/27 08:26:24;;;;;;;12.00;9.43;;;;;;;6.57;100.00;94791.22;5015889;28;20959;-80
2020/12/27 08:28:51;;;;;;;19.67;12.50;;;;;;;6.44;100.00;94786.03;5015533;28;20447;-81
2020/12/27 08:31:28;;;;;;;21.30;11.67;;;;;;;6.52;100.00;94794.16;5015736;28;20869;-81
2020/12/27 08:34:12;;;;;;;19.13;11.03;;;;;;;6.48;100.00;94778.84;5015441;28;20478;-80
2020/12/27 08:36:39;;;;;;;11.67;8.60;;;;;;;6.56;100.00;94773.06;5015702;28;20497;-80
2020/12/27 08:39:14;;;;;;;9.23;7.50;;;;;;;6.57;100.00;94769.53;5015578;28;21054;-79
2020/12/27 08:41:46;;;;;;;9.70;8.03;;;;;;;6.37;100.00;94768.34;5015724;28;20446;-79
2020/12/27 08:44:40;;;;;;;16.53;10.03;;;;;;;6.27;100.00;94756.88;5015893;28;20451;-79
2020/12/27 08:47:13;;;;;;;15.15;9.68;;;;;;;6.25;100.00;94764.81;5012657;28;20461;-81
2020/12/27 08:49:46;;;;;;;28.13;17.30;;;;;;;6.43;100.00;94773.94;5007472;28;20210;-80
2020/12/27 08:52:19;;;;;;;19.50;12.90;;;;;;;6.33;100.00;94777.28;5012444;28;20462;-80
2020/12/27 08:54:49;;;;;;;16.53;10.93;;;;;;;6.32;100.00;94766.03;5015014;28;20491;-81
2020/12/27 08:57:18;;;;;;;17.03;10.40;;;;;;;6.47;100.00;94761.53;5015587;28;20806;-80
2020/12/27 08:59:58;;;;;;;18.50;10.83;;;;;;;6.36;100.00;94769.25;4995323;28;20982;-82
2020/12/27 09:02:25;;;;;;;10.17;8.50;;;;;;;6.39;100.00;94769.06;4994382;28;20991;-81
2020/12/27 09:05:04;;;;;;;13.40;9.63;;;;;;;6.44;100.00;94759.16;4930650;28;20486;-81
2020/12/27 09:07:32;;;;;;;16.50;12.50;;;;;;;6.55;100.00;94756.59;5014881;28;20469;-81
2020/12/27 09:10:10;;;;;;;23.70;16.63;;;;;;;6.58;100.00;94766.81;5015085;28;20446;-80
2020/12/27 09:12:37;;;;;;;24.67;13.37;;;;;;;6.62;100.00;94754.38;5014677;28;20497;-81
2020/12/27 09:15:23;;;;;;;16.10;10.70;;;;;;;6.58;100.00;94759.00;5014817;28;20447;-81
2020/12/27 09:17:59;;;;;;;11.77;9.03;;;;;;;6.52;100.00;94754.22;4978749;28;20482;-80
2020/12/27 09:20:26;;;;;;;11.30;7.60;;;;;;;6.71;100.00;94748.53;5010686;28;20444;-80
2020/12/27 09:22:53;;;;;;;15.93;10.03;;;;;;;6.69;100.00;94751.25;4976615;28;20498;-81
2020/12/27 09:25:20;;;;;;;18.00;10.83;;;;;;;6.73;100.00;94750.09;4995300;28;20458;-81
2020/12/27 09:27:48;;;;;;;13.43;9.10;;;;;;;6.73;100.00;94739.66;4995354;28;20463;-81
2020/12/27 09:30:16;;;;;;;24.10;10.70;;;;;;;6.74;100.00;94736.09;4995248;28;20448;-81
2020/12/27 09:32:43;;;;;;;16.03;11.20;;;;;;;6.76;100.00;94722.94;4976292;28;20458;-81
2020/12/27 09:35:17;;;;;;;17.67;11.10;;;;;;;6.83;100.00;94709.34;4995022;28;20440;-80
2020/12/27 09:37:43;;;;;;;22.33;15.63;;;;;;;6.86;100.00;94705.69;4994889;28;20444;-79
2020/12/27 09:40:10;;;;;;;15.67;10.13;;;;;;;6.86;100.00;94708.28;4976191;28;20432;-80
2020/12/27 09:42:36;;;;;;;13.10;10.53;;;;;;;6.98;100.00;94699.59;4994603;28;20955;-80
2020/12/27 09:45:17;;;;;;;13.90;6.73;;;;;;;7.17;100.00;94691.19;4994258;28;20963;-79
2020/12/27 09:47:54;;;;;;;19.63;11.90;;;;;;;7.31;100.00;94693.63;5008942;28;20908;-80
2020/12/27 09:50:30;;;;;;;26.60;15.60;;;;;;;7.42;100.00;94685.81;5013992;28;20978;-79
2020/12/27 09:52:56;;;;;;;27.17;14.97;;;;;;;7.50;100.00;94690.44;5013821;28;20819;-80
2020/12/27 09:55:23;;;;;;;18.93;15.40;;;;;;;7.54;100.00;94688.44;5014028;28;20444;-80
2020/12/27 09:57:50;;;;;;;21.30;15.40;;;;;;;7.63;100.00;94682.53;4979459;28;20475;-79
2020/12/27 10:00:16;;;;;;;24.60;17.43;;;;;;;7.73;100.00;94670.41;5014843;28;20458;-82
2020/12/27 10:02:43;;;;;;;24.63;16.00;;;;;;;7.73;100.00;94673.84;4995224;28;20453;-81
2020/12/27 10:05:09;;;;;;;17.37;11.10;;;;;;;7.66;100.00;94674.44;5014616;28;20443;-82
2020/12/27 10:07:37;;;;;;;26.70;18.33;;;;;;;7.66;100.00;94679.66;5013675;28;20451;-81
2020/12/27 10:10:04;;;;;;;19.43;15.23;;;;;;;7.77;100.00;94674.44;4995536;28;20451;-81
2020/12/27 10:12:31;;;;;;;11.53;8.87;;;;;;;7.66;100.00;94656.16;5013787;28;20861;-81
2020/12/27 10:14:57;;;;;;;13.20;10.60;;;;;;;7.50;100.00;94655.66;5014163;28;20495;-80
2020/12/27 10:17:24;;;;;;;9.37;7.83;;;;;;;7.57;100.00;94652.50;4978690;28;20435;-81
2020/12/27 10:19:50;;;;;;;7.83;6.93;;;;;;;7.72;100.00;94650.47;5014433;28;20447;-81
2020/12/27 10:22:17;;;;;;;9.10;8.20;;;;;;;7.83;100.00;94650.47;4996372;28;20539;-81
2020/12/27 10:24:44;;;;;;;16.30;8.80;;;;;;;7.69;100.00;94651.53;5013683;28;20454;-82
2020/12/27 10:27:11;;;;;;;9.10;6.70;;;;;;;7.84;100.00;94657.38;5013468;28;20444;-81
2020/12/27 10:29:37;;;;;;;8.07;5.73;;;;;;;7.94;100.00;94660.91;5014883;28;20913;-83
2020/12/27 10:32:05;;;;;;;13.07;10.50;;;;;;;7.96;100.00;94648.56;5014469;28;20451;-85
2020/12/27 10:34:33;;;;;;;6.57;4.33;;;;;;;8.06;100.00;94638.19;5014310;28;20930;-83
2020/12/27 10:37:00;;;;;;;4.73;2.70;;;;;;;8.08;100.00;94631.06;5014772;28;20538;-83
2020/12/27 10:39:27;;;;;;;4.90;3.80;;;;;;;8.21;100.00;94630.94;5013725;28;20449;-83
2020/12/27 10:41:55;;;;;;;5.77;3.67;;;;;;;8.39;100.00;94624.28;5013288;28;20444;-83
2020/12/27 10:44:22;;;;;;;17.70;10.37;;;;;;;8.51;100.00;94618.06;5013369;28;20457;-82
2020/12/27 10:46:50;;;;;;;16.73;9.80;;;;;;;8.61;100.00;94611.13;5013358;28;20444;-82
2020/12/27 10:49:17;;;;;;;11.47;7.60;;;;;;;8.55;100.00;94605.56;4995743;28;20487;-83
2020/12/27 10:51:44;;;;;;;6.57;4.37;;;;;;;8.53;100.00;94610.91;5016402;28;20460;-80
2020/12/27 10:54:11;;;;;;;14.47;10.40;;;;;;;8.53;98.99;94605.69;5012914;28;21016;-84
2020/12/27 10:56:38;;;;;;;8.00;7.17;;;;;;;8.64;99.04;94600.41;5013388;28;20449;-83
2020/12/27 10:59:06;;;;;;;10.50;7.70;;;;;;;8.73;98.14;94587.53;5013356;28;20535;-83
2020/12/27 11:01:32;;;;;;;18.03;9.97;;;;;;;8.83;98.70;94586.66;5008325;28;20569;-83
2020/12/27 11:03:59;;;;;;;20.00;14.47;;;;;;;8.95;98.84;94582.16;5012517;28;20859;-82
2020/12/27 11:06:29;;;;;;;14.40;8.77;;;;;;;9.01;98.11;94573.81;5013299;28;20519;-81
2020/12/27 11:08:56;;;;;;;11.60;7.90;;;;;;;9.05;97.07;94559.53;4994890;28;20457;-79
2020/12/27 11:11:22;;;;;;;20.00;13.17;;;;;;;9.14;97.05;94556.13;5013224;28;20446;-82
2020/12/27 11:13:48;;;;;;;17.30;13.23;;;;;;;9.22;95.84;94548.44;5013622;28;20481;-84
2020/12/27 11:16:16;;;;;;;10.27;7.60;;;;;;;9.06;94.10;94535.00;5014012;28;20490;-83
2020/12/27 11:18:42;;;;;;;12.57;8.50;;;;;;;8.89;94.99;94544.25;5013272;28;20457;-81
2020/12/27 11:21:09;;;;;;;7.97;6.13;;;;;;;8.65;95.91;94547.13;4994418;28;20440;-82
2020/12/27 11:23:35;;;;;;;7.57;5.40;;;;;;;8.42;96.70;94524.69;5012458;28;21015;-82
2020/12/27 11:26:02;;;;;;;5.73;3.47;;;;;;;8.33;97.04;94509.69;5013151;28;20936;-82
2020/12/27 11:28:29;;;;;;;4.13;3.67;;;;;;;8.15;96.78;94500.78;5012755;28;20452;-81
2020/12/27 11:30:55;;;;;;;2.50;2.27;;;;;;;8.08;98.62;94509.09;5013333;28;20456;-81
2020/12/27 11:33:22;;;;;;;3.40;2.90;;;;;;;8.08;99.63;94511.69;5012637;28;20484;-81